sensor_id;sensor_type;location;lat;lon;timestamp;pressure;altitude;pressure_sealevel;temperature;humidity
43488;BME280;29078;41.932;25.554;2023-03-22T00:02:06;99141.56;;;12.62;60.69
43488;BME280;29078;41.932;25.554;2023-03-22T00:04:32;99178.72;;;12.82;61.38
43488;BME280;29078;41.932;25.554;2023-03-22T00:06:57;99161.19;;;12.81;61.18
43488;BME280;29078;41.932;25.554;2023-03-22T00:09:22;99152.00;;;12.64;61.33
43488;BME280;29078;41.932;25.554;2023-03-22T00:11:48;99124.00;;;12.35;61.74
43488;BME280;29078;41.932;25.554;2023-03-22T00:14:17;99135.81;;;12.39;61.90
43488;BME280;29078;41.932;25.554;2023-03-22T00:16:42;99146.63;;;12.51;61.92
43488;BME280;29078;41.932;25.554;2023-03-22T00:19:10;99202.13;;;12.72;62.70
43488;BME280;29078;41.932;25.554;2023-03-22T00:21:35;99163.09;;;12.33;62.72
43488;BME280;29078;41.932;25.554;2023-03-22T00:24:01;99207.63;;;12.70;62.77
43488;BME280;29078;41.932;25.554;2023-03-22T00:26:26;99168.81;;;12.43;62.83
43488;BME280;29078;41.932;25.554;2023-03-22T00:28:51;99162.06;;;12.34;63.19
43488;BME280;29078;41.932;25.554;2023-03-22T00:31:17;99099.25;;;12.01;63.24
43488;BME280;29078;41.932;25.554;2023-03-22T00:33:44;99197.44;;;12.67;63.29
43488;BME280;29078;41.932;25.554;2023-03-22T00:36:11;99106.41;;;12.07;63.39
43488;BME280;29078;41.932;25.554;2023-03-22T00:38:36;99165.97;;;12.45;64.12
43488;BME280;29078;41.932;25.554;2023-03-22T00:41:17;99202.31;;;12.64;64.76
43488;BME280;29078;41.932;25.554;2023-03-22T00:43:44;99183.94;;;12.56;63.92
43488;BME280;29078;41.932;25.554;2023-03-22T00:46:11;99208.84;;;12.68;64.06
43488;BME280;29078;41.932;25.554;2023-03-22T00:48:37;99112.94;;;12.12;64.19
43488;BME280;29078;41.932;25.554;2023-03-22T00:51:04;99206.00;;;12.69;64.20
43488;BME280;29078;41.932;25.554;2023-03-22T00:53:30;99132.94;;;12.27;63.98
43488;BME280;29078;41.932;25.554;2023-03-22T00:55:57;99117.59;;;12.09;64.13
43488;BME280;29078;41.932;25.554;2023-03-22T00:58:23;99203.56;;;12.68;64.57
43488;BME280;29078;41.932;25.554;2023-03-22T01:00:48;99161.28;;;12.40;64.98
43488;BME280;29078;41.932;25.554;2023-03-22T01:03:14;99207.84;;;12.69;64.87
43488;BME280;29078;41.932;25.554;2023-03-22T01:05:40;99207.03;;;12.68;65.02
43488;BME280;29078;41.932;25.554;2023-03-22T01:08:09;99156.56;;;12.35;65.25
43488;BME280;29078;41.932;25.554;2023-03-22T01:10:35;99203.31;;;12.63;64.82
43488;BME280;29078;41.932;25.554;2023-03-22T01:13:01;99142.91;;;12.25;65.17
43488;BME280;29078;41.932;25.554;2023-03-22T01:15:27;99190.44;;;12.53;64.92
43488;BME280;29078;41.932;25.554;2023-03-22T01:17:52;99216.50;;;12.50;65.43
43488;BME280;29078;41.932;25.554;2023-03-22T01:20:18;99134.66;;;12.00;65.40
43488;BME280;29078;41.932;25.554;2023-03-22T01:22:43;99138.09;;;11.94;65.67
43488;BME280;29078;41.932;25.554;2023-03-22T01:25:09;99211.78;;;12.38;66.00
43488;BME280;29078;41.932;25.554;2023-03-22T01:27:35;99087.63;;;11.61;65.95
43488;BME280;29078;41.932;25.554;2023-03-22T01:30:00;99063.06;;;11.33;66.50
43488;BME280;29078;41.932;25.554;2023-03-22T01:32:26;99133.72;;;11.80;66.71
43488;BME280;29078;41.932;25.554;2023-03-22T01:34:51;99167.25;;;12.07;66.60
43488;BME280;29078;41.932;25.554;2023-03-22T01:37:18;99156.63;;;11.94;66.05
43488;BME280;29078;41.932;25.554;2023-03-22T01:39:43;99157.06;;;12.04;66.29
43488;BME280;29078;41.932;25.554;2023-03-22T01:42:12;99178.66;;;12.08;66.47
43488;BME280;29078;41.932;25.554;2023-03-22T01:44:41;99208.94;;;12.40;66.72
43488;BME280;29078;41.932;25.554;2023-03-22T01:47:08;99220.13;;;12.42;66.39
43488;BME280;29078;41.932;25.554;2023-03-22T01:49:36;99128.09;;;11.90;66.43
43488;BME280;29078;41.932;25.554;2023-03-22T01:52:09;99204.84;;;12.37;66.59
43488;BME280;29078;41.932;25.554;2023-03-22T01:57:04;99187.03;;;12.12;67.12
43488;BME280;29078;41.932;25.554;2023-03-22T01:59:30;99181.91;;;12.03;67.58
43488;BME280;29078;41.932;25.554;2023-03-22T02:01:57;99162.03;;;11.86;67.08
43488;BME280;29078;41.932;25.554;2023-03-22T02:04:26;99095.91;;;11.52;66.73
43488;BME280;29078;41.932;25.554;2023-03-22T02:07:00;99212.34;;;12.27;67.58
43488;BME280;29078;41.932;25.554;2023-03-22T02:09:27;99206.41;;;12.19;67.38
43488;BME280;29078;41.932;25.554;2023-03-22T02:17:32;99204.19;;;12.22;68.07
43488;BME280;29078;41.932;25.554;2023-03-22T02:23:47;99207.84;;;12.21;68.09
43488;BME280;29078;41.932;25.554;2023-03-22T02:26:49;99120.00;;;11.70;67.59
43488;BME280;29078;41.932;25.554;2023-03-22T02:43:18;99147.47;;;11.69;68.41
43488;BME280;29078;41.932;25.554;2023-03-22T02:53:23;99168.84;;;11.95;68.63
43488;BME280;29078;41.932;25.554;2023-03-22T02:56:01;99119.09;;;11.50;68.87
43488;BME280;29078;41.932;25.554;2023-03-22T02:58:34;99157.88;;;11.77;68.64
43488;BME280;29078;41.932;25.554;2023-03-22T03:01:05;99111.47;;;11.33;68.66
43488;BME280;29078;41.932;25.554;2023-03-22T03:03:32;99089.03;;;11.23;69.36
43488;BME280;29078;41.932;25.554;2023-03-22T03:06:05;99058.69;;;10.91;69.39
43488;BME280;29078;41.932;25.554;2023-03-22T03:08:36;99096.09;;;11.16;68.84
43488;BME280;29078;41.932;25.554;2023-03-22T03:11:02;99080.25;;;10.94;69.34
43488;BME280;29078;41.932;25.554;2023-03-22T03:13:27;99085.97;;;10.98;69.23
43488;BME280;29078;41.932;25.554;2023-03-22T03:15:56;99177.25;;;11.50;69.46
43488;BME280;29078;41.932;25.554;2023-03-22T03:29:21;99110.25;;;11.08;69.66
43488;BME280;29078;41.932;25.554;2023-03-22T03:34:45;99160.53;;;11.42;69.36
43488;BME280;29078;41.932;25.554;2023-03-22T03:37:19;99177.88;;;11.52;69.40
43488;BME280;29078;41.932;25.554;2023-03-22T03:40:11;99168.69;;;11.48;69.50
43488;BME280;29078;41.932;25.554;2023-03-22T03:42:43;99187.28;;;11.61;68.84
43488;BME280;29078;41.932;25.554;2023-03-22T03:45:11;99181.63;;;11.64;68.86
43488;BME280;29078;41.932;25.554;2023-03-22T03:47:38;99178.00;;;11.71;68.90
43488;BME280;29078;41.932;25.554;2023-03-22T03:50:04;99209.72;;;11.93;68.65
43488;BME280;29078;41.932;25.554;2023-03-22T03:52:30;99146.91;;;11.45;68.88
43488;BME280;29078;41.932;25.554;2023-03-22T03:54:56;99142.25;;;11.48;68.72
43488;BME280;29078;41.932;25.554;2023-03-22T03:57:21;99112.28;;;11.34;68.83
43488;BME280;29078;41.932;25.554;2023-03-22T03:59:46;99221.56;;;11.97;68.45
43488;BME280;29078;41.932;25.554;2023-03-22T04:02:12;99158.19;;;11.61;68.77
43488;BME280;29078;41.932;25.554;2023-03-22T04:04:37;99199.06;;;11.86;69.40
43488;BME280;29078;41.932;25.554;2023-03-22T04:07:04;99117.81;;;11.39;68.83
43488;BME280;29078;41.932;25.554;2023-03-22T04:09:33;99216.25;;;11.97;68.71
43488;BME280;29078;41.932;25.554;2023-03-22T04:11:59;99164.22;;;11.48;69.08
43488;BME280;29078;41.932;25.554;2023-03-22T04:14:26;99185.06;;;11.64;69.12
43488;BME280;29078;41.932;25.554;2023-03-22T04:16:52;99232.44;;;11.87;68.91
43488;BME280;29078;41.932;25.554;2023-03-22T04:19:18;99243.84;;;11.88;69.40
43488;BME280;29078;41.932;25.554;2023-03-22T04:21:44;99155.78;;;11.31;68.34
43488;BME280;29078;41.932;25.554;2023-03-22T04:24:10;99184.78;;;11.53;68.99
43488;BME280;29078;41.932;25.554;2023-03-22T04:26:36;99240.19;;;11.89;69.18
43488;BME280;29078;41.932;25.554;2023-03-22T04:29:02;99241.22;;;11.88;69.25
43488;BME280;29078;41.932;25.554;2023-03-22T04:31:29;99251.63;;;11.89;69.15
43488;BME280;29078;41.932;25.554;2023-03-22T04:33:55;99174.75;;;11.41;68.56
43488;BME280;29078;41.932;25.554;2023-03-22T04:36:24;99198.22;;;11.51;68.61
43488;BME280;29078;41.932;25.554;2023-03-22T04:38:50;99254.13;;;11.76;68.31
43488;BME280;29078;41.932;25.554;2023-03-22T04:41:17;99231.22;;;11.62;68.33
43488;BME280;29078;41.932;25.554;2023-03-22T04:43:43;99206.09;;;11.44;68.69
43488;BME280;29078;41.932;25.554;2023-03-22T04:46:12;99259.34;;;11.69;68.87
43488;BME280;29078;41.932;25.554;2023-03-22T04:48:40;99262.00;;;11.69;68.63
43488;BME280;29078;41.932;25.554;2023-03-22T04:51:07;99262.25;;;11.74;68.93
43488;BME280;29078;41.932;25.554;2023-03-22T04:53:33;99229.97;;;11.58;68.58
43488;BME280;29078;41.932;25.554;2023-03-22T04:56:04;99154.91;;;11.03;68.74
43488;BME280;29078;41.932;25.554;2023-03-22T04:58:31;99261.44;;;11.74;68.43
43488;BME280;29078;41.932;25.554;2023-03-22T05:00:57;99246.09;;;11.63;68.17
43488;BME280;29078;41.932;25.554;2023-03-22T05:03:23;99199.44;;;11.27;68.58
43488;BME280;29078;41.932;25.554;2023-03-22T05:05:56;99260.41;;;11.75;68.54
43488;BME280;29078;41.932;25.554;2023-03-22T05:08:23;99267.53;;;11.74;67.97
43488;BME280;29078;41.932;25.554;2023-03-22T05:10:49;99268.97;;;11.77;68.18
43488;BME280;29078;41.932;25.554;2023-03-22T05:13:17;99266.78;;;11.81;67.69
43488;BME280;29078;41.932;25.554;2023-03-22T05:15:42;99154.13;;;11.09;68.15
43488;BME280;29078;41.932;25.554;2023-03-22T05:18:08;99279.00;;;11.82;68.16
43488;BME280;29078;41.932;25.554;2023-03-22T05:20:33;99275.34;;;11.83;67.97
43488;BME280;29078;41.932;25.554;2023-03-22T05:22:59;99229.69;;;11.46;68.25
43488;BME280;29078;41.932;25.554;2023-03-22T05:25:27;99270.56;;;11.71;68.23
43488;BME280;29078;41.932;25.554;2023-03-22T05:27:52;99265.38;;;11.57;68.62
43488;BME280;29078;41.932;25.554;2023-03-22T05:30:18;99292.16;;;11.75;68.33
43488;BME280;29078;41.932;25.554;2023-03-22T05:32:44;99306.00;;;11.77;68.71
43488;BME280;29078;41.932;25.554;2023-03-22T05:35:10;99309.81;;;11.68;68.28
43488;BME280;29078;41.932;25.554;2023-03-22T05:37:36;99300.22;;;11.67;68.12
43488;BME280;29078;41.932;25.554;2023-03-22T05:40:02;99302.00;;;11.60;68.03
43488;BME280;29078;41.932;25.554;2023-03-22T05:42:29;99314.09;;;11.69;68.88
43488;BME280;29078;41.932;25.554;2023-03-22T05:44:55;99242.09;;;11.24;68.37
43488;BME280;29078;41.932;25.554;2023-03-22T05:47:20;99242.41;;;11.14;68.34
43488;BME280;29078;41.932;25.554;2023-03-22T05:49:46;99260.97;;;11.21;68.08
43488;BME280;29078;41.932;25.554;2023-03-22T05:52:11;99185.22;;;10.86;68.30
43488;BME280;29078;41.932;25.554;2023-03-22T05:54:37;99311.56;;;11.61;68.25
43488;BME280;29078;41.932;25.554;2023-03-22T05:57:02;99257.03;;;11.32;68.19
43488;BME280;29078;41.932;25.554;2023-03-22T05:59:27;99320.63;;;11.73;67.92
43488;BME280;29078;41.932;25.554;2023-03-22T06:01:53;99274.75;;;11.38;67.97
43488;BME280;29078;41.932;25.554;2023-03-22T06:04:19;99292.06;;;11.40;67.89
43488;BME280;29078;41.932;25.554;2023-03-22T06:06:45;99360.81;;;11.83;68.50
43488;BME280;29078;41.932;25.554;2023-03-22T06:09:11;99364.09;;;11.85;68.48
43488;BME280;29078;41.932;25.554;2023-03-22T06:11:38;99360.44;;;11.86;68.38
43488;BME280;29078;41.932;25.554;2023-03-22T06:14:04;99274.81;;;11.23;68.10
43488;BME280;29078;41.932;25.554;2023-03-22T06:16:29;99281.81;;;11.31;67.63
43488;BME280;29078;41.932;25.554;2023-03-22T06:18:54;99300.63;;;11.42;67.52
43488;BME280;29078;41.932;25.554;2023-03-22T06:21:20;99349.00;;;11.79;67.73
43488;BME280;29078;41.932;25.554;2023-03-22T06:23:45;99338.88;;;11.68;67.90
43488;BME280;29078;41.932;25.554;2023-03-22T06:26:11;99309.19;;;11.44;67.63
43488;BME280;29078;41.932;25.554;2023-03-22T06:28:36;99382.81;;;11.84;67.36
43488;BME280;29078;41.932;25.554;2023-03-22T06:31:06;99334.75;;;11.59;67.72
43488;BME280;29078;41.932;25.554;2023-03-22T06:33:33;99307.75;;;11.42;67.91
43488;BME280;29078;41.932;25.554;2023-03-22T06:35:58;99310.19;;;11.43;67.85
43488;BME280;29078;41.932;25.554;2023-03-22T06:38:26;99333.16;;;11.64;67.99
43488;BME280;29078;41.932;25.554;2023-03-22T06:40:51;99388.44;;;11.95;67.60
43488;BME280;29078;41.932;25.554;2023-03-22T06:43:17;99322.91;;;11.55;67.02
43488;BME280;29078;41.932;25.554;2023-03-22T06:45:45;99369.38;;;11.85;67.21
43488;BME280;29078;41.932;25.554;2023-03-22T06:48:10;99316.34;;;11.51;67.65
43488;BME280;29078;41.932;25.554;2023-03-22T06:50:35;99353.38;;;11.72;67.48
43488;BME280;29078;41.932;25.554;2023-03-22T06:53:03;99328.56;;;11.52;67.12
43488;BME280;29078;41.932;25.554;2023-03-22T06:55:29;99298.81;;;11.43;67.24
43488;BME280;29078;41.932;25.554;2023-03-22T06:58:01;99364.56;;;11.74;66.87
43488;BME280;29078;41.932;25.554;2023-03-22T07:00:27;99416.16;;;11.99;67.36
43488;BME280;29078;41.932;25.554;2023-03-22T07:02:53;99337.75;;;11.56;66.98
43488;BME280;29078;41.932;25.554;2023-03-22T07:05:19;99319.69;;;11.38;66.85
43488;BME280;29078;41.932;25.554;2023-03-22T07:07:45;99386.25;;;11.84;67.12
43488;BME280;29078;41.932;25.554;2023-03-22T07:10:11;99293.78;;;11.27;67.00
43488;BME280;29078;41.932;25.554;2023-03-22T07:12:36;99395.78;;;12.00;67.16
43488;BME280;29078;41.932;25.554;2023-03-22T07:15:02;99322.03;;;11.48;66.91
43488;BME280;29078;41.932;25.554;2023-03-22T07:17:28;99316.69;;;11.41;66.67
43488;BME280;29078;41.932;25.554;2023-03-22T07:19:54;99380.91;;;11.77;66.90
43488;BME280;29078;41.932;25.554;2023-03-22T07:22:19;99257.13;;;11.02;66.68
43488;BME280;29078;41.932;25.554;2023-03-22T07:24:49;99331.97;;;11.45;66.93
43488;BME280;29078;41.932;25.554;2023-03-22T07:27:15;99343.63;;;11.51;67.17
43488;BME280;29078;41.932;25.554;2023-03-22T07:29:41;99316.53;;;11.28;67.12
43488;BME280;29078;41.932;25.554;2023-03-22T07:32:06;99415.00;;;11.87;66.66
43488;BME280;29078;41.932;25.554;2023-03-22T07:34:31;99363.06;;;11.65;67.00
43488;BME280;29078;41.932;25.554;2023-03-22T07:36:57;99416.19;;;12.06;67.08
43488;BME280;29078;41.932;25.554;2023-03-22T07:39:23;99416.19;;;12.06;66.32
43488;BME280;29078;41.932;25.554;2023-03-22T07:41:53;99408.00;;;12.01;66.35
43488;BME280;29078;41.932;25.554;2023-03-22T07:44:18;99401.84;;;11.94;66.73
43488;BME280;29078;41.932;25.554;2023-03-22T07:46:44;99412.50;;;12.00;66.21
43488;BME280;29078;41.932;25.554;2023-03-22T07:49:09;99346.94;;;11.60;66.20
43488;BME280;29078;41.932;25.554;2023-03-22T07:51:35;99346.75;;;11.61;66.26
43488;BME280;29078;41.932;25.554;2023-03-22T07:54:01;99420.63;;;11.99;66.38
43488;BME280;29078;41.932;25.554;2023-03-22T07:56:26;99417.22;;;12.05;65.86
43488;BME280;29078;41.932;25.554;2023-03-22T07:58:52;99353.13;;;11.67;65.82
43488;BME280;29078;41.932;25.554;2023-03-22T08:01:17;99384.72;;;11.90;66.06
43488;BME280;29078;41.932;25.554;2023-03-22T08:03:42;99327.00;;;11.57;66.56
43488;BME280;29078;41.932;25.554;2023-03-22T08:06:08;99319.25;;;11.56;66.18
43488;BME280;29078;41.932;25.554;2023-03-22T08:08:35;99423.88;;;12.22;65.83
43488;BME280;29078;41.932;25.554;2023-03-22T08:11:02;99428.78;;;12.25;65.96
43488;BME280;29078;41.932;25.554;2023-03-22T08:13:27;99443.06;;;12.31;65.95
43488;BME280;29078;41.932;25.554;2023-03-22T08:15:53;99415.09;;;12.22;65.96
43488;BME280;29078;41.932;25.554;2023-03-22T08:18:18;99437.22;;;12.35;65.91
43488;BME280;29078;41.932;25.554;2023-03-22T08:20:43;99399.66;;;12.25;65.52
43488;BME280;29078;41.932;25.554;2023-03-22T08:23:11;99369.19;;;12.08;65.51
43488;BME280;29078;41.932;25.554;2023-03-22T08:25:41;99367.56;;;12.07;65.06
43488;BME280;29078;41.932;25.554;2023-03-22T08:28:07;99388.72;;;12.35;65.27
43488;BME280;29078;41.932;25.554;2023-03-22T08:30:33;99438.69;;;12.66;64.94
43488;BME280;29078;41.932;25.554;2023-03-22T08:32:58;99428.44;;;12.63;64.85
43488;BME280;29078;41.932;25.554;2023-03-22T08:35:23;99451.78;;;12.74;64.61
43488;BME280;29078;41.932;25.554;2023-03-22T08:37:53;99409.63;;;12.51;64.77
43488;BME280;29078;41.932;25.554;2023-03-22T08:40:18;99395.75;;;12.49;64.81
43488;BME280;29078;41.932;25.554;2023-03-22T08:42:44;99359.72;;;12.20;64.81
43488;BME280;29078;41.932;25.554;2023-03-22T08:45:12;99448.19;;;12.88;64.70
43488;BME280;29078;41.932;25.554;2023-03-22T08:47:39;99338.00;;;12.31;64.47
43488;BME280;29078;41.932;25.554;2023-03-22T08:50:06;99399.97;;;12.65;63.97
43488;BME280;29078;41.932;25.554;2023-03-22T08:52:32;99363.34;;;12.47;63.75
43488;BME280;29078;41.932;25.554;2023-03-22T08:54:57;99447.91;;;13.11;63.83
43488;BME280;29078;41.932;25.554;2023-03-22T08:57:22;99351.16;;;12.53;63.88
43488;BME280;29078;41.932;25.554;2023-03-22T08:59:49;99420.94;;;13.01;63.65
43488;BME280;29078;41.932;25.554;2023-03-22T09:02:16;99420.13;;;13.00;63.51
43488;BME280;29078;41.932;25.554;2023-03-22T09:04:41;99367.03;;;12.81;63.84
43488;BME280;29078;41.932;25.554;2023-03-22T09:07:07;99454.81;;;13.40;63.60
43488;BME280;29078;41.932;25.554;2023-03-22T09:09:32;99393.25;;;13.10;63.32
43488;BME280;29078;41.932;25.554;2023-03-22T09:11:58;99459.88;;;13.35;63.44
43488;BME280;29078;41.932;25.554;2023-03-22T09:14:23;99353.19;;;12.85;63.20
43488;BME280;29078;41.932;25.554;2023-03-22T09:16:49;99450.16;;;13.49;63.15
43488;BME280;29078;41.932;25.554;2023-03-22T09:19:15;99374.91;;;13.09;62.73
43488;BME280;29078;41.932;25.554;2023-03-22T09:21:41;99352.03;;;13.01;62.54
43488;BME280;29078;41.932;25.554;2023-03-22T09:24:07;99427.50;;;13.46;62.10
43488;BME280;29078;41.932;25.554;2023-03-22T09:26:32;99390.06;;;13.21;62.01
43488;BME280;29078;41.932;25.554;2023-03-22T09:28:58;99450.59;;;13.59;62.03
43488;BME280;29078;41.932;25.554;2023-03-22T09:31:23;99423.19;;;13.39;62.21
43488;BME280;29078;41.932;25.554;2023-03-22T09:33:49;99364.28;;;13.09;61.80
43488;BME280;29078;41.932;25.554;2023-03-22T09:36:14;99394.78;;;13.32;61.66
43488;BME280;29078;41.932;25.554;2023-03-22T09:38:40;99427.34;;;13.61;61.16
43488;BME280;29078;41.932;25.554;2023-03-22T09:43:37;99441.25;;;13.76;61.32
43488;BME280;29078;41.932;25.554;2023-03-22T09:46:09;99351.72;;;13.17;60.75
43488;BME280;29078;41.932;25.554;2023-03-22T09:48:40;99429.59;;;13.71;60.53
43488;BME280;29078;41.932;25.554;2023-03-22T09:51:17;99362.16;;;13.32;60.12
43488;BME280;29078;41.932;25.554;2023-03-22T09:53:45;99353.78;;;13.35;59.88
43488;BME280;29078;41.932;25.554;2023-03-22T10:03:56;99448.47;;;14.28;59.05
43488;BME280;29078;41.932;25.554;2023-03-22T10:06:26;99430.09;;;14.34;58.34
43488;BME280;29078;41.932;25.554;2023-03-22T10:16:28;99359.19;;;13.88;56.78
43488;BME280;29078;41.932;25.554;2023-03-22T10:19:15;99405.56;;;14.12;56.87
43488;BME280;29078;41.932;25.554;2023-03-22T10:21:45;99457.09;;;14.44;56.84
43488;BME280;29078;41.932;25.554;2023-03-22T10:24:16;99460.34;;;14.52;56.75
43488;BME280;29078;41.932;25.554;2023-03-22T10:26:45;99421.72;;;14.30;57.04
43488;BME280;29078;41.932;25.554;2023-03-22T10:29:34;99462.19;;;14.58;56.31
43488;BME280;29078;41.932;25.554;2023-03-22T10:32:15;99418.66;;;14.26;56.76
43488;BME280;29078;41.932;25.554;2023-03-22T10:34:42;99461.38;;;14.51;57.07
43488;BME280;29078;41.932;25.554;2023-03-22T10:37:14;99460.97;;;14.54;57.11
43488;BME280;29078;41.932;25.554;2023-03-22T10:39:44;99454.84;;;14.47;56.67
43488;BME280;29078;41.932;25.554;2023-03-22T10:42:18;99410.28;;;14.29;56.95
43488;BME280;29078;41.932;25.554;2023-03-22T10:44:48;99446.25;;;14.65;56.36
43488;BME280;29078;41.932;25.554;2023-03-22T10:47:17;99453.78;;;14.81;56.09
43488;BME280;29078;41.932;25.554;2023-03-22T10:49:46;99357.97;;;14.56;55.62
43488;BME280;29078;41.932;25.554;2023-03-22T10:54:45;99347.88;;;14.78;54.39
43488;BME280;29078;41.932;25.554;2023-03-22T10:57:10;99376.63;;;15.08;53.80
43488;BME280;29078;41.932;25.554;2023-03-22T10:59:50;99380.28;;;15.13;53.03
43488;BME280;29078;41.932;25.554;2023-03-22T11:02:30;99408.78;;;15.44;53.00
43488;BME280;29078;41.932;25.554;2023-03-22T11:05:01;99434.50;;;15.57;53.02
43488;BME280;29078;41.932;25.554;2023-03-22T11:07:42;99421.66;;;15.61;53.01
43488;BME280;29078;41.932;25.554;2023-03-22T11:12:38;99367.41;;;15.10;53.16
43488;BME280;29078;41.932;25.554;2023-03-22T11:15:05;99426.38;;;15.45;53.42
43488;BME280;29078;41.932;25.554;2023-03-22T11:17:31;99412.66;;;15.48;53.65
43488;BME280;29078;41.932;25.554;2023-03-22T11:19:59;99353.69;;;15.13;53.36
43488;BME280;29078;41.932;25.554;2023-03-22T11:22:35;99381.72;;;15.09;52.96
43488;BME280;29078;41.932;25.554;2023-03-22T11:25:08;99416.81;;;15.31;53.22
43488;BME280;29078;41.932;25.554;2023-03-22T11:27:52;99422.56;;;15.28;52.69
43488;BME280;29078;41.932;25.554;2023-03-22T11:30:23;99412.75;;;15.29;52.97
43488;BME280;29078;41.932;25.554;2023-03-22T11:32:58;99410.97;;;15.16;52.68
43488;BME280;29078;41.932;25.554;2023-03-22T11:35:24;99332.72;;;14.85;52.85
43488;BME280;29078;41.932;25.554;2023-03-22T11:37:54;99403.53;;;15.31;52.81
43488;BME280;29078;41.932;25.554;2023-03-22T11:40:28;99372.31;;;15.13;52.74
43488;BME280;29078;41.932;25.554;2023-03-22T11:43:20;99390.81;;;15.33;52.62
43488;BME280;29078;41.932;25.554;2023-03-22T11:45:49;99386.91;;;15.36;52.70
43488;BME280;29078;41.932;25.554;2023-03-22T11:48:23;99363.19;;;15.34;52.03
43488;BME280;29078;41.932;25.554;2023-03-22T11:50:52;99396.84;;;15.60;52.55
43488;BME280;29078;41.932;25.554;2023-03-22T11:53:21;99312.66;;;15.34;52.19
43488;BME280;29078;41.932;25.554;2023-03-22T11:55:49;99389.16;;;16.08;51.61
43488;BME280;29078;41.932;25.554;2023-03-22T11:58:42;99321.41;;;15.79;51.10
43488;BME280;29078;41.932;25.554;2023-03-22T12:01:18;99302.97;;;15.78;51.34
43488;BME280;29078;41.932;25.554;2023-03-22T12:03:50;99395.03;;;16.17;51.06
43488;BME280;29078;41.932;25.554;2023-03-22T12:06:28;99361.59;;;16.21;50.86
43488;BME280;29078;41.932;25.554;2023-03-22T12:11:52;99310.16;;;16.20;50.31
43488;BME280;29078;41.932;25.554;2023-03-22T12:14:23;99386.03;;;16.61;49.70
43488;BME280;29078;41.932;25.554;2023-03-22T12:19:42;99380.94;;;16.60;50.37
43488;BME280;29078;41.932;25.554;2023-03-22T12:22:12;99279.06;;;15.96;50.16
43488;BME280;29078;41.932;25.554;2023-03-22T12:24:38;99377.66;;;16.58;49.88
43488;BME280;29078;41.932;25.554;2023-03-22T12:27:14;99367.72;;;16.46;49.58
43488;BME280;29078;41.932;25.554;2023-03-22T12:29:46;99348.94;;;16.41;50.11
43488;BME280;29078;41.932;25.554;2023-03-22T12:32:21;99383.16;;;16.63;48.59
43488;BME280;29078;41.932;25.554;2023-03-22T12:34:50;99367.50;;;16.48;48.80
43488;BME280;29078;41.932;25.554;2023-03-22T12:37:27;99384.31;;;16.48;48.36
43488;BME280;29078;41.932;25.554;2023-03-22T12:42:49;99326.28;;;16.07;47.67
43488;BME280;29078;41.932;25.554;2023-03-22T12:45:40;99340.28;;;16.21;46.14
43488;BME280;29078;41.932;25.554;2023-03-22T12:48:14;99316.81;;;16.11;47.22
43488;BME280;29078;41.932;25.554;2023-03-22T12:50:54;99371.53;;;16.57;47.16
43488;BME280;29078;41.932;25.554;2023-03-22T12:53:25;99376.38;;;16.67;47.64
43488;BME280;29078;41.932;25.554;2023-03-22T12:55:52;99360.41;;;16.60;47.66
43488;BME280;29078;41.932;25.554;2023-03-22T12:58:21;99370.81;;;16.68;47.13
43488;BME280;29078;41.932;25.554;2023-03-22T13:00:51;99286.53;;;16.06;47.56
43488;BME280;29078;41.932;25.554;2023-03-22T13:03:28;99378.69;;;16.57;47.67
43488;BME280;29078;41.932;25.554;2023-03-22T13:06:04;99369.88;;;16.56;47.06
43488;BME280;29078;41.932;25.554;2023-03-22T13:11:33;99380.44;;;16.69;47.02
43488;BME280;29078;41.932;25.554;2023-03-22T13:13:59;99301.66;;;16.30;46.91
43488;BME280;29078;41.932;25.554;2023-03-22T13:16:51;99371.13;;;16.78;46.59
43488;BME280;29078;41.932;25.554;2023-03-22T13:19:33;99387.91;;;16.97;46.43
43488;BME280;29078;41.932;25.554;2023-03-22T13:22:13;99351.50;;;16.73;45.13
43488;BME280;29078;41.932;25.554;2023-03-22T13:25:11;99379.25;;;16.65;46.18
43488;BME280;29078;41.932;25.554;2023-03-22T13:38:32;99374.25;;;17.42;44.49
43488;BME280;29078;41.932;25.554;2023-03-22T13:41:33;99383.78;;;17.50;44.35
43488;BME280;29078;41.932;25.554;2023-03-22T13:44:01;99307.00;;;17.22;44.38
43488;BME280;29078;41.932;25.554;2023-03-22T13:51:29;99340.03;;;17.51;43.65
43488;BME280;29078;41.932;25.554;2023-03-22T13:59:10;99385.28;;;17.45;43.94
43488;BME280;29078;41.932;25.554;2023-03-22T14:01:40;99369.34;;;17.39;43.84
43488;BME280;29078;41.932;25.554;2023-03-22T14:04:11;99299.84;;;16.86;44.32
43488;BME280;29078;41.932;25.554;2023-03-22T14:09:54;99370.97;;;17.10;45.04
43488;BME280;29078;41.932;25.554;2023-03-22T14:12:43;99334.22;;;16.75;45.00
43488;BME280;29078;41.932;25.554;2023-03-22T14:15:14;99314.91;;;16.80;44.52
43488;BME280;29078;41.932;25.554;2023-03-22T14:17:45;99368.22;;;17.17;44.72
43488;BME280;29078;41.932;25.554;2023-03-22T14:20:14;99369.03;;;16.99;45.18
43488;BME280;29078;41.932;25.554;2023-03-22T14:22:46;99372.16;;;16.96;45.41
43488;BME280;29078;41.932;25.554;2023-03-22T14:25:17;99354.44;;;16.83;45.42
43488;BME280;29078;41.932;25.554;2023-03-22T14:27:44;99363.47;;;16.82;45.44
43488;BME280;29078;41.932;25.554;2023-03-22T14:32:51;99325.09;;;16.46;46.10
43488;BME280;29078;41.932;25.554;2023-03-22T14:35:24;99350.56;;;16.61;45.88
43488;BME280;29078;41.932;25.554;2023-03-22T14:37:52;99327.06;;;16.33;45.92
43488;BME280;29078;41.932;25.554;2023-03-22T14:40:33;99327.34;;;16.25;46.12
43488;BME280;29078;41.932;25.554;2023-03-22T14:45:49;99350.06;;;16.27;46.04
43488;BME280;29078;41.932;25.554;2023-03-22T14:48:24;99339.97;;;16.11;46.49
43488;BME280;29078;41.932;25.554;2023-03-22T14:50:53;99371.38;;;16.27;46.36